createdAt,value
2023-05-11T00:00:49.963Z,100873.30
2023-05-11T00:03:23.676Z,100872.05
2023-05-11T00:05:57.256Z,100870.27
2023-05-11T00:08:30.866Z,100869.93
2023-05-11T00:11:04.686Z,100865.60
2023-05-11T00:13:38.392Z,100863.92
2023-05-11T00:16:12.028Z,100861.95
2023-05-11T00:18:45.838Z,100861.27
2023-05-11T00:21:19.480Z,100864.12
2023-05-11T00:23:53.171Z,100862.63
2023-05-11T00:26:27.184Z,100864.98
2023-05-11T00:29:01.177Z,100867.23
2023-05-11T00:31:34.877Z,100868.23
2023-05-11T00:34:08.641Z,100864.12
2023-05-11T00:36:43.371Z,100869.38
2023-05-11T00:39:17.943Z,100866.39
2023-05-11T00:41:51.791Z,100863.95
2023-05-11T00:44:25.453Z,100864.33
2023-05-11T00:46:59.550Z,100862.89
2023-05-11T00:49:33.703Z,100862.65
2023-05-11T00:52:07.923Z,100857.77
2023-05-11T00:54:42.169Z,100859.21
2023-05-11T00:57:16.463Z,100857.83
2023-05-11T00:59:51.133Z,100855.52
2023-05-11T01:02:25.405Z,100857.73
2023-05-11T01:04:59.134Z,100854.70
2023-05-11T01:07:38.985Z,100851.06
2023-05-11T01:10:23.601Z,100852.52
2023-05-11T01:13:06.639Z,100850.48
2023-05-11T01:15:46.922Z,100847.32
2023-05-11T01:18:27.829Z,100847.39
2023-05-11T01:21:04.186Z,100851.36
2023-05-11T01:24:13.146Z,100854.46
2023-05-11T01:27:16.652Z,100851.55
2023-05-11T01:30:07.608Z,100853.34
2023-05-11T01:32:44.727Z,100853.20
2023-05-11T01:35:23.080Z,100852.28
2023-05-11T01:37:59.732Z,100847.60
2023-05-11T01:40:38.154Z,100846.95
2023-05-11T01:43:15.183Z,100842.00
2023-05-11T01:45:51.745Z,100845.06
2023-05-11T01:48:29.881Z,100845.05
2023-05-11T01:51:05.303Z,100843.64
2023-05-11T01:53:42.792Z,100844.96
2023-05-11T01:56:18.622Z,100842.80
2023-05-11T01:58:54.406Z,100843.49
2023-05-11T02:01:29.191Z,100845.16
2023-05-11T02:04:06.989Z,100845.17
2023-05-11T02:06:42.866Z,100844.08
2023-05-11T02:09:18.087Z,100846.83
2023-05-11T02:11:53.264Z,100850.76
2023-05-11T02:14:34.548Z,100846.47
2023-05-11T02:17:09.780Z,100847.84
2023-05-11T02:19:48.740Z,100844.80
2023-05-11T02:22:22.087Z,100849.48
2023-05-11T02:24:56.109Z,100849.25
2023-05-11T02:27:30.924Z,100846.38
2023-05-11T02:30:05.029Z,100845.75
2023-05-11T02:32:44.243Z,100846.15
2023-05-11T02:35:24.032Z,100849.41
2023-05-11T02:38:02.250Z,100849.48
2023-05-11T02:40:42.363Z,100851.53
2023-05-11T02:43:20.900Z,100850.98
2023-05-11T02:46:04.596Z,100854.78
2023-05-11T02:48:45.431Z,100856.98
2023-05-11T02:51:24.165Z,100855.70
2023-05-11T02:54:00.506Z,100855.63
2023-05-11T02:56:36.982Z,100855.70
2023-05-11T02:59:10.811Z,100857.49
2023-05-11T03:01:44.903Z,100859.63
2023-05-11T03:04:18.598Z,100860.49
2023-05-11T03:06:52.830Z,100859.65
2023-05-11T03:09:26.813Z,100861.45
2023-05-11T03:12:01.263Z,100861.95
2023-05-11T03:14:37.299Z,100858.92
2023-05-11T03:17:13.979Z,100861.22
2023-05-11T03:19:48.479Z,100862.95
2023-05-11T03:22:24.060Z,100866.92
2023-05-11T03:24:58.312Z,100870.13
2023-05-11T03:27:33.749Z,100867.56
2023-05-11T03:30:13.489Z,100869.98
2023-05-11T03:32:50.593Z,100869.20
2023-05-11T03:35:26.146Z,100870.91
2023-05-11T03:38:01.303Z,100872.83
2023-05-11T03:40:36.031Z,100878.06
2023-05-11T03:43:11.884Z,100882.58
2023-05-11T03:45:47.262Z,100884.53
2023-05-11T03:48:22.532Z,100884.79
2023-05-11T03:50:56.916Z,100885.13
2023-05-11T03:53:32.046Z,100884.02
2023-05-11T03:56:07.675Z,100887.34
2023-05-11T03:58:43.862Z,100891.97
2023-05-11T04:01:18.283Z,100895.61
2023-05-11T04:03:53.878Z,100895.10
2023-05-11T04:06:28.754Z,100895.41
2023-05-11T04:09:17.010Z,100896.34
2023-05-11T04:11:50.977Z,100898.39
2023-05-11T04:14:24.742Z,100894.73
2023-05-11T04:16:58.144Z,100894.32
2023-05-11T04:19:34.570Z,100897.70
2023-05-11T04:22:08.252Z,100897.65
2023-05-11T04:24:43.837Z,100899.13
2023-05-11T04:27:18.026Z,100896.67
2023-05-11T04:29:51.830Z,100899.33
2023-05-11T04:32:25.769Z,100895.85
2023-05-11T04:34:59.649Z,100896.83
2023-05-11T04:37:35.373Z,100896.70
2023-05-11T04:40:12.280Z,100896.67
2023-05-11T04:42:50.095Z,100897.67
2023-05-11T04:45:25.949Z,100895.74
2023-05-11T04:48:00.156Z,100897.38
2023-05-11T04:50:33.966Z,100901.39
2023-05-11T04:53:07.693Z,100901.73
2023-05-11T04:55:41.752Z,100905.80
2023-05-11T04:58:15.765Z,100906.42
2023-05-11T05:00:49.413Z,100905.23
2023-05-11T05:03:23.046Z,100907.25
2023-05-11T05:05:56.961Z,100905.95
2023-05-11T05:08:30.497Z,100904.98
2023-05-11T05:11:04.989Z,100905.10
2023-05-11T05:13:38.954Z,100905.91
2023-05-11T05:16:13.149Z,100902.88
2023-05-11T05:18:47.184Z,100902.13
2023-05-11T05:21:21.917Z,100902.13
2023-05-11T05:23:56.462Z,100905.77
2023-05-11T05:26:30.858Z,100896.79
2023-05-11T05:29:04.727Z,100894.13
2023-05-11T05:31:38.769Z,100897.50
2023-05-11T05:34:16.291Z,100901.46
2023-05-11T05:36:51.283Z,100902.33
2023-05-11T05:39:24.787Z,100909.30
2023-05-11T05:41:58.868Z,100902.48
2023-05-11T05:44:32.690Z,100903.74
2023-05-11T05:47:06.455Z,100907.27
2023-05-11T05:49:42.142Z,100908.63
2023-05-11T05:52:15.818Z,100910.48
2023-05-11T05:54:50.133Z,100908.04
2023-05-11T05:57:24.098Z,100904.88
2023-05-11T05:59:58.184Z,100903.81
2023-05-11T06:02:31.942Z,100902.92
2023-05-11T06:05:06.233Z,100899.11
2023-05-11T06:07:39.780Z,100899.80
2023-05-11T06:10:13.788Z,100901.50
2023-05-11T06:12:47.859Z,100902.41
2023-05-11T06:15:22.388Z,100901.02
2023-05-11T06:18:01.336Z,100901.38
2023-05-11T06:20:36.495Z,100903.60
2023-05-11T06:23:10.983Z,100910.89
2023-05-11T06:25:46.161Z,100906.52
2023-05-11T06:28:19.954Z,100904.18
2023-05-11T06:30:54.025Z,100905.22
2023-05-11T06:33:28.108Z,100900.22
2023-05-11T06:36:05.406Z,100899.57
2023-05-11T06:38:39.046Z,100896.45
2023-05-11T06:41:13.695Z,100897.01
2023-05-11T06:43:47.425Z,100898.05
2023-05-11T06:46:27.064Z,100897.38
2023-05-11T06:49:01.290Z,100900.65
2023-05-11T06:51:35.013Z,100898.55
2023-05-11T06:54:08.851Z,100900.66
2023-05-11T06:56:42.957Z,100901.39
2023-05-11T06:59:16.683Z,100908.31
2023-05-11T07:01:50.713Z,100907.30
2023-05-11T07:04:24.688Z,100908.02
2023-05-11T07:06:58.485Z,100910.33
2023-05-11T07:09:32.384Z,100911.92
2023-05-11T07:12:07.153Z,100910.19
2023-05-11T07:14:40.741Z,100910.02
2023-05-11T07:17:14.789Z,100915.06
2023-05-11T07:19:48.266Z,100911.73
2023-05-11T07:22:22.089Z,100907.79
2023-05-11T07:24:55.858Z,100907.39
2023-05-11T07:27:29.393Z,100905.77
2023-05-11T07:30:04.034Z,100899.96
2023-05-11T07:32:37.926Z,100898.02
2023-05-11T07:35:12.347Z,100903.73
2023-05-11T07:37:46.188Z,100910.44
2023-05-11T07:40:20.375Z,100906.11
2023-05-11T07:42:54.567Z,100899.82
2023-05-11T07:45:28.366Z,100901.02
2023-05-11T07:48:02.022Z,100899.67
2023-05-11T07:50:35.612Z,100898.97
2023-05-11T07:53:09.520Z,100901.53
2023-05-11T07:55:43.362Z,100901.94
2023-05-11T07:58:18.018Z,100913.70
2023-05-11T08:00:51.660Z,100907.20
2023-05-11T08:03:25.469Z,100908.98
2023-05-11T08:05:59.523Z,100908.23
2023-05-11T08:08:33.414Z,100911.78
2023-05-11T08:11:07.462Z,100901.83
2023-05-11T08:13:41.273Z,100905.65
2023-05-11T08:16:16.454Z,100906.33
2023-05-11T08:18:50.341Z,100901.64
2023-05-11T08:21:24.076Z,100894.45
2023-05-11T08:23:57.920Z,100892.55
2023-05-11T08:26:31.667Z,100887.19
2023-05-11T08:29:05.912Z,100878.55
2023-05-11T08:31:39.899Z,100880.61
2023-05-11T08:34:19.158Z,100874.95
2023-05-11T08:36:55.631Z,100876.70
2023-05-11T08:39:43.612Z,100883.05
2023-05-11T08:42:21.841Z,100880.19
2023-05-11T08:44:59.681Z,100880.77
2023-05-11T08:47:33.907Z,100880.25
2023-05-11T08:50:09.143Z,100889.20
2023-05-11T08:52:42.813Z,100886.69
2023-05-11T08:55:17.266Z,100883.84
2023-05-11T08:57:53.284Z,100876.95
2023-05-11T09:00:28.841Z,100883.80
2023-05-11T09:03:03.097Z,100882.75
2023-05-11T09:05:38.318Z,100880.84
2023-05-11T09:08:14.289Z,100880.01
2023-05-11T09:10:48.203Z,100874.78
2023-05-11T09:13:22.301Z,100872.10
2023-05-11T09:15:56.531Z,100876.52
2023-05-11T09:18:30.430Z,100883.60
2023-05-11T09:21:04.699Z,100875.41
2023-05-11T09:23:38.425Z,100879.35
2023-05-11T09:26:17.635Z,100880.96
2023-05-11T09:31:41.373Z,100877.88
2023-05-11T09:34:20.441Z,100871.80
2023-05-11T09:36:55.373Z,100880.06
2023-05-11T09:39:42.077Z,100886.11
2023-05-11T09:42:22.849Z,100876.91
2023-05-11T09:44:56.592Z,100876.98
2023-05-11T09:47:40.446Z,100876.14
2023-05-11T09:50:26.236Z,100870.15
2023-05-11T09:53:00.886Z,100865.45
2023-05-11T09:55:34.977Z,100860.85
2023-05-11T09:58:10.164Z,100844.78
2023-05-11T10:00:52.685Z,100845.19
2023-05-11T10:03:27.766Z,100838.98
2023-05-11T10:06:03.144Z,100834.89
2023-05-11T10:08:36.479Z,100846.39
2023-05-11T10:11:11.212Z,100846.96
2023-05-11T10:13:47.300Z,100839.99
2023-05-11T10:16:22.863Z,100836.03
2023-05-11T10:18:57.274Z,100845.26
2023-05-11T10:21:32.142Z,100853.92
2023-05-11T10:24:06.731Z,100843.13
2023-05-11T10:26:42.854Z,100836.42
2023-05-11T10:29:17.685Z,100838.56
2023-05-11T10:31:52.274Z,100841.57
2023-05-11T10:34:26.157Z,100836.67
2023-05-11T10:37:12.281Z,100835.77
2023-05-11T10:39:50.105Z,100834.70
2023-05-11T10:42:37.908Z,100827.54
2023-05-11T10:45:23.485Z,100826.59
2023-05-11T10:48:26.826Z,100824.33
2023-05-11T10:51:23.049Z,100826.75
2023-05-11T10:54:08.456Z,100820.13
2023-05-11T10:57:14.305Z,100821.95
2023-05-11T11:00:31.570Z,100828.50
2023-05-11T11:03:13.313Z,100826.87
2023-05-11T11:05:48.501Z,100821.83
2023-05-11T11:08:23.347Z,100814.57
2023-05-11T11:10:57.440Z,100821.46
2023-05-11T11:13:31.590Z,100811.06
2023-05-11T11:16:21.535Z,100813.85
2023-05-11T11:19:16.182Z,100815.63
2023-05-11T11:21:50.679Z,100811.39
2023-05-11T11:24:48.380Z,100805.19
2023-05-11T11:27:20.393Z,100814.08
2023-05-11T11:30:19.770Z,100813.02
2023-05-11T11:32:55.110Z,100800.79
2023-05-11T11:35:52.577Z,100798.11
2023-05-11T11:38:28.565Z,100797.51
2023-05-11T11:41:03.772Z,100796.20
2023-05-11T11:43:47.641Z,100793.77
2023-05-11T11:46:31.267Z,100798.12
2023-05-11T11:49:14.468Z,100802.23
2023-05-11T11:51:49.074Z,100796.64
2023-05-11T11:54:40.664Z,100798.52
2023-05-11T11:57:50.063Z,100791.06
2023-05-11T12:00:26.567Z,100784.77
2023-05-11T12:03:01.629Z,100786.72
2023-05-11T12:05:39.988Z,100791.88
2023-05-11T12:08:15.175Z,100786.27
2023-05-11T12:10:55.583Z,100797.38
2023-05-11T12:13:29.905Z,100796.89
2023-05-11T12:16:17.766Z,100792.83
2023-05-11T12:19:01.104Z,100783.98
2023-05-11T12:21:36.286Z,100785.89
2023-05-11T12:24:13.820Z,100789.70
2023-05-11T12:26:47.590Z,100790.21
2023-05-11T12:29:21.017Z,100790.33
2023-05-11T12:31:55.662Z,100792.73
2023-05-11T12:34:29.635Z,100784.16
2023-05-11T12:37:07.411Z,100784.63
2023-05-11T12:39:41.239Z,100776.34
2023-05-11T12:42:22.703Z,100765.70
2023-05-11T12:44:57.894Z,100759.94
2023-05-11T12:47:32.852Z,100758.64
2023-05-11T12:50:07.758Z,100769.85
2023-05-11T12:52:41.557Z,100765.56
2023-05-11T12:55:18.286Z,100765.60
2023-05-11T12:57:55.090Z,100766.98
2023-05-11T13:00:29.154Z,100760.71
2023-05-11T13:03:03.218Z,100758.08
2023-05-11T13:05:37.545Z,100754.14
2023-05-11T13:08:15.060Z,100756.92
2023-05-11T13:10:48.668Z,100755.09
2023-05-11T13:13:31.952Z,100748.71
2023-05-11T13:16:07.513Z,100750.67
2023-05-11T13:18:58.016Z,100754.25
2023-05-11T13:21:33.734Z,100752.67
2023-05-11T13:24:08.621Z,100746.08
2023-05-11T13:26:42.440Z,100741.98
2023-05-11T13:29:16.761Z,100738.44
2023-05-11T13:31:51.780Z,100739.98
2023-05-11T13:34:27.289Z,100743.48
2023-05-11T13:37:01.186Z,100745.50
2023-05-11T13:39:35.124Z,100741.49
2023-05-11T13:42:09.618Z,100743.80
2023-05-11T13:44:43.752Z,100740.33
2023-05-11T13:47:17.856Z,100733.69
2023-05-11T13:49:53.293Z,100734.27
2023-05-11T13:52:27.200Z,100733.61
2023-05-11T13:55:01.373Z,100731.30
2023-05-11T13:57:34.880Z,100731.36
2023-05-11T14:00:10.872Z,100729.55
2023-05-11T14:02:48.520Z,100736.36
2023-05-11T14:05:23.215Z,100740.02
2023-05-11T14:07:57.119Z,100736.00
2023-05-11T14:10:30.685Z,100737.23
2023-05-11T14:13:06.808Z,100733.16
2023-05-11T14:15:40.821Z,100738.34
2023-05-11T14:18:14.786Z,100733.13
2023-05-11T14:20:48.396Z,100724.80
2023-05-11T14:23:22.991Z,100724.21
2023-05-11T14:25:57.381Z,100721.11
2023-05-11T14:28:31.324Z,100717.77
2023-05-11T14:31:05.463Z,100719.66
2023-05-11T14:33:41.350Z,100713.55
2023-05-11T14:36:15.145Z,100714.02
2023-05-11T14:38:49.053Z,100712.70
2023-05-11T14:41:23.173Z,100711.30
2023-05-11T14:43:58.216Z,100717.14
2023-05-11T14:46:32.264Z,100715.67
2023-05-11T14:49:07.131Z,100715.91
2023-05-11T14:51:41.130Z,100724.03
2023-05-11T14:54:14.692Z,100724.98
2023-05-11T14:56:54.224Z,100728.83
2023-05-11T14:59:28.489Z,100726.36
2023-05-11T15:02:02.215Z,100722.79
2023-05-11T15:04:36.909Z,100721.17
2023-05-11T15:07:10.681Z,100722.44
2023-05-11T15:09:44.533Z,100723.08
2023-05-11T15:12:18.135Z,100723.33
2023-05-11T15:14:52.264Z,100724.33
2023-05-11T15:17:26.002Z,100723.19
2023-05-11T15:19:59.471Z,100725.68
2023-05-11T15:22:33.109Z,100730.32
2023-05-11T15:25:07.277Z,100726.91
2023-05-11T15:27:41.134Z,100722.02
2023-05-11T15:30:17.139Z,100723.92
2023-05-11T15:32:52.145Z,100720.61
2023-05-11T15:35:25.997Z,100722.26
2023-05-11T15:38:00.185Z,100717.00
2023-05-11T15:40:34.451Z,100719.18
2023-05-11T15:43:08.219Z,100719.94
2023-05-11T15:45:42.586Z,100713.52
2023-05-11T15:48:16.408Z,100721.58
2023-05-11T15:50:50.682Z,100729.31
2023-05-11T15:53:24.506Z,100732.85
2023-05-11T15:55:58.471Z,100736.16
2023-05-11T15:58:32.648Z,100730.71
2023-05-11T16:01:09.061Z,100731.35
2023-05-11T16:03:43.209Z,100730.16
2023-05-11T16:06:16.924Z,100732.94
2023-05-11T16:08:50.799Z,100737.77
2023-05-11T16:11:25.744Z,100728.71
2023-05-11T16:13:59.610Z,100728.86
2023-05-11T16:16:33.398Z,100728.46
2023-05-11T16:19:07.544Z,100730.59
2023-05-11T16:21:41.910Z,100728.13
2023-05-11T16:24:16.304Z,100729.13
2023-05-11T16:26:50.490Z,100728.58
2023-05-11T16:29:26.545Z,100727.95
2023-05-11T16:32:00.938Z,100725.98
2023-05-11T16:34:35.510Z,100724.58
2023-05-11T16:37:09.588Z,100724.75
2023-05-11T16:39:44.010Z,100729.59
2023-05-11T16:42:18.944Z,100724.66
2023-05-11T16:44:54.588Z,100724.54
2023-05-11T16:47:28.380Z,100725.36
2023-05-11T16:50:02.410Z,100724.63
2023-05-11T16:52:36.764Z,100725.36
2023-05-11T16:55:12.386Z,100724.55
2023-05-11T16:57:46.688Z,100732.16
2023-05-11T17:00:21.974Z,100731.09
2023-05-11T17:02:57.019Z,100733.36
2023-05-11T17:05:31.200Z,100737.02
2023-05-11T17:08:04.656Z,100737.50
2023-05-11T17:10:38.420Z,100739.59
2023-05-11T17:13:12.442Z,100738.88
2023-05-11T17:15:46.585Z,100740.91
2023-05-11T17:18:20.480Z,100744.59
2023-05-11T17:20:57.124Z,100743.17
2023-05-11T17:23:32.885Z,100741.99
2023-05-11T17:26:12.760Z,100744.42
2023-05-11T17:28:46.395Z,100744.67
2023-05-11T17:31:20.335Z,100742.85
2023-05-11T17:33:54.558Z,100745.13
2023-05-11T17:36:30.315Z,100750.51
2023-05-11T17:39:04.243Z,100751.20
2023-05-11T17:41:38.162Z,100753.11
2023-05-11T17:44:12.218Z,100754.52
2023-05-11T17:46:45.906Z,100754.91
2023-05-11T17:49:20.038Z,100757.23
2023-05-11T17:51:53.673Z,100758.48
2023-05-11T17:54:27.433Z,100756.60
2023-05-11T17:57:01.328Z,100761.17
2023-05-11T17:59:35.339Z,100764.96
2023-05-11T18:02:09.832Z,100764.69
2023-05-11T18:04:43.514Z,100764.05
2023-05-11T18:07:17.101Z,100769.88
2023-05-11T18:09:50.576Z,100771.30
2023-05-11T18:12:24.357Z,100774.54
2023-05-11T18:14:58.339Z,100779.23
2023-05-11T18:17:32.477Z,100781.19
2023-05-11T18:20:06.743Z,100780.84
2023-05-11T18:22:40.750Z,100785.13
2023-05-11T18:25:15.325Z,100785.36
2023-05-11T18:27:49.541Z,100785.95
2023-05-11T18:30:23.918Z,100788.93
2023-05-11T18:32:57.967Z,100792.54
2023-05-11T18:35:31.882Z,100795.14
2023-05-11T18:38:05.678Z,100797.86
2023-05-11T18:40:42.289Z,100802.50
2023-05-11T18:43:16.328Z,100805.32
2023-05-11T18:45:50.726Z,100806.39
2023-05-11T18:48:25.178Z,100807.06
2023-05-11T18:51:00.529Z,100805.37
2023-05-11T18:53:35.953Z,100809.23
2023-05-11T18:56:11.404Z,100810.89
2023-05-11T18:58:46.851Z,100813.82
2023-05-11T19:01:20.280Z,100818.51
2023-05-11T19:03:54.099Z,100818.29
2023-05-11T19:06:28.693Z,100817.34
2023-05-11T19:09:02.872Z,100818.06
2023-05-11T19:11:36.876Z,100822.58
2023-05-11T19:14:15.841Z,100826.42
2023-05-11T19:16:49.852Z,100829.79
2023-05-11T19:19:24.340Z,100832.92
2023-05-11T19:22:00.171Z,100835.73
2023-05-11T19:24:34.771Z,100835.17
2023-05-11T19:27:10.433Z,100837.55
2023-05-11T19:29:44.813Z,100837.54
2023-05-11T19:32:20.450Z,100841.27
2023-05-11T19:34:54.741Z,100844.02
2023-05-11T19:37:30.448Z,100843.96
2023-05-11T19:40:43.128Z,100844.51
2023-05-11T19:43:01.400Z,100845.33
2023-05-11T19:45:35.113Z,100846.63
2023-05-11T19:48:10.592Z,100847.45
2023-05-11T19:50:44.890Z,100848.05
2023-05-11T19:53:18.993Z,100848.31
2023-05-11T19:55:53.272Z,100849.63
2023-05-11T19:58:27.814Z,100847.14
2023-05-11T20:01:01.478Z,100847.29
2023-05-11T20:03:35.021Z,100848.96
2023-05-11T20:06:08.739Z,100857.02
2023-05-11T20:08:42.409Z,100860.64
2023-05-11T20:11:16.439Z,100863.09
2023-05-11T20:13:50.033Z,100862.48
2023-05-11T20:16:23.921Z,100861.95
2023-05-11T20:18:59.939Z,100866.94
2023-05-11T20:21:36.289Z,100866.38
2023-05-11T20:24:10.724Z,100865.20
2023-05-11T20:26:44.876Z,100864.73
2023-05-11T20:29:18.630Z,100866.41
2023-05-11T20:31:52.303Z,100870.85
2023-05-11T20:34:26.029Z,100868.91
2023-05-11T20:36:59.445Z,100869.56
2023-05-11T20:39:33.650Z,100868.99
2023-05-11T20:42:07.929Z,100872.04
2023-05-11T20:44:41.745Z,100871.31
2023-05-11T20:47:15.464Z,100869.48
2023-05-11T20:49:50.352Z,100871.55
2023-05-11T20:52:26.244Z,100873.56
2023-05-11T20:54:59.907Z,100874.77
2023-05-11T20:57:33.487Z,100874.56
2023-05-11T21:00:08.581Z,100877.28
2023-05-11T21:02:42.315Z,100874.89
2023-05-11T21:05:16.064Z,100876.89
2023-05-11T21:07:50.188Z,100879.08
2023-05-11T21:10:24.155Z,100883.06
2023-05-11T21:12:57.922Z,100886.20
2023-05-11T21:15:31.844Z,100889.91
2023-05-11T21:18:05.619Z,100893.34
2023-05-11T21:20:39.556Z,100893.70
2023-05-11T21:23:14.548Z,100896.13
2023-05-11T21:25:52.940Z,100895.65
2023-05-11T21:28:27.482Z,100901.20
2023-05-11T21:31:01.382Z,100900.61
2023-05-11T21:33:35.036Z,100904.42
2023-05-11T21:36:09.766Z,100907.45
2023-05-11T21:38:43.351Z,100909.81
2023-05-11T21:41:17.189Z,100906.73
2023-05-11T21:43:50.951Z,100904.17
2023-05-11T21:46:25.125Z,100909.79
2023-05-11T21:48:58.382Z,100914.55
2023-05-11T21:51:33.232Z,100915.06
2023-05-11T21:54:07.338Z,100917.33
2023-05-11T21:56:41.012Z,100918.27
2023-05-11T21:59:16.895Z,100914.34
2023-05-11T22:01:50.401Z,100917.46
2023-05-11T22:04:24.582Z,100919.17
2023-05-11T22:07:01.007Z,100921.93
2023-05-11T22:09:35.483Z,100925.02
2023-05-11T22:12:10.328Z,100925.66
2023-05-11T22:14:43.874Z,100924.25
2023-05-11T22:17:17.477Z,100927.96
2023-05-11T22:19:51.023Z,100930.52
2023-05-11T22:22:24.898Z,100930.95
2023-05-11T22:24:58.827Z,100935.63
2023-05-11T22:27:32.653Z,100938.42
2023-05-11T22:30:07.786Z,100937.28
2023-05-11T22:32:41.686Z,100942.83
2023-05-11T22:35:15.225Z,100944.75
2023-05-11T22:37:49.180Z,100947.48
2023-05-11T22:40:22.820Z,100949.44
2023-05-11T22:42:56.204Z,100950.14
2023-05-11T22:45:30.037Z,100946.00
2023-05-11T22:48:03.920Z,100947.64
2023-05-11T22:50:37.355Z,100952.59
2023-05-11T22:53:10.803Z,100955.86
2023-05-11T22:55:44.617Z,100955.58
2023-05-11T22:58:17.902Z,100955.33
2023-05-11T23:00:55.006Z,100953.76
2023-05-11T23:03:29.147Z,100954.86
2023-05-11T23:06:03.228Z,100955.73
2023-05-11T23:08:36.563Z,100951.86
2023-05-11T23:11:10.133Z,100953.04
2023-05-11T23:13:44.005Z,100954.09
2023-05-11T23:16:18.107Z,100953.71
2023-05-11T23:18:51.861Z,100954.83
2023-05-11T23:21:26.030Z,100951.34
2023-05-11T23:23:59.675Z,100950.77
2023-05-11T23:26:33.634Z,100951.30
2023-05-11T23:29:07.230Z,100949.87
2023-05-11T23:31:41.491Z,100946.52
2023-05-11T23:34:15.105Z,100944.92
2023-05-11T23:36:49.400Z,100948.98
2023-05-11T23:39:23.111Z,100945.97
2023-05-11T23:41:56.913Z,100947.32
2023-05-11T23:44:30.881Z,100948.90
2023-05-11T23:47:04.411Z,100949.23
2023-05-11T23:49:38.814Z,100949.52
2023-05-11T23:52:12.670Z,100952.08
2023-05-11T23:54:46.388Z,100953.87
2023-05-11T23:57:20.110Z,100953.16
2023-05-11T23:59:53.501Z,100953.85
